sensor_id;sensor_type;location;lat;lon;timestamp;P1;durP1;ratioP1;P2;durP2;ratioP2
19727;SDS011;10015;52.530;13.390;2023-05-07T00:00:40;16.13;;;9.80;;
19727;SDS011;10015;52.530;13.390;2023-05-07T00:03:07;16.73;;;9.73;;
19727;SDS011;10015;52.530;13.390;2023-05-07T00:05:33;15.97;;;9.97;;
19727;SDS011;10015;52.530;13.390;2023-05-07T00:07:59;17.67;;;10.33;;
19727;SDS011;10015;52.530;13.390;2023-05-07T00:10:25;16.30;;;9.93;;
19727;SDS011;10015;52.530;13.390;2023-05-07T00:12:51;16.67;;;9.33;;
19727;SDS011;10015;52.530;13.390;2023-05-07T00:15:17;16.43;;;9.47;;
19727;SDS011;10015;52.530;13.390;2023-05-07T00:17:43;16.90;;;9.73;;
19727;SDS011;10015;52.530;13.390;2023-05-07T00:20:09;18.60;;;9.60;;
19727;SDS011;10015;52.530;13.390;2023-05-07T00:22:35;14.03;;;9.13;;
19727;SDS011;10015;52.530;13.390;2023-05-07T00:25:01;14.83;;;9.73;;
19727;SDS011;10015;52.530;13.390;2023-05-07T00:27:27;14.03;;;8.73;;
19727;SDS011;10015;52.530;13.390;2023-05-07T00:29:53;15.63;;;9.47;;
19727;SDS011;10015;52.530;13.390;2023-05-07T00:32:19;15.10;;;9.90;;
19727;SDS011;10015;52.530;13.390;2023-05-07T00:34:45;13.77;;;9.07;;
19727;SDS011;10015;52.530;13.390;2023-05-07T00:37:11;16.23;;;9.30;;
19727;SDS011;10015;52.530;13.390;2023-05-07T00:39:37;14.07;;;9.57;;
19727;SDS011;10015;52.530;13.390;2023-05-07T00:42:03;16.47;;;8.93;;
19727;SDS011;10015;52.530;13.390;2023-05-07T00:44:29;14.57;;;8.37;;
19727;SDS011;10015;52.530;13.390;2023-05-07T00:46:55;14.77;;;8.90;;
19727;SDS011;10015;52.530;13.390;2023-05-07T00:49:24;12.67;;;8.40;;
19727;SDS011;10015;52.530;13.390;2023-05-07T00:52:01;13.37;;;8.47;;
19727;SDS011;10015;52.530;13.390;2023-05-07T00:54:27;12.33;;;8.73;;
19727;SDS011;10015;52.530;13.390;2023-05-07T00:56:53;14.10;;;9.00;;
19727;SDS011;10015;52.530;13.390;2023-05-07T00:59:20;14.80;;;8.70;;
19727;SDS011;10015;52.530;13.390;2023-05-07T01:01:46;14.67;;;8.47;;
19727;SDS011;10015;52.530;13.390;2023-05-07T01:04:12;13.40;;;8.87;;
19727;SDS011;10015;52.530;13.390;2023-05-07T01:06:37;14.97;;;9.23;;
19727;SDS011;10015;52.530;13.390;2023-05-07T01:09:04;13.97;;;9.10;;
19727;SDS011;10015;52.530;13.390;2023-05-07T01:11:30;12.97;;;9.00;;
19727;SDS011;10015;52.530;13.390;2023-05-07T01:13:57;15.50;;;9.30;;
19727;SDS011;10015;52.530;13.390;2023-05-07T01:16:25;12.20;;;8.73;;
19727;SDS011;10015;52.530;13.390;2023-05-07T01:18:52;13.73;;;9.17;;
19727;SDS011;10015;52.530;13.390;2023-05-07T01:21:18;14.20;;;9.40;;
19727;SDS011;10015;52.530;13.390;2023-05-07T01:23:47;16.10;;;8.80;;
19727;SDS011;10015;52.530;13.390;2023-05-07T01:26:13;14.80;;;8.87;;
19727;SDS011;10015;52.530;13.390;2023-05-07T01:28:43;13.43;;;8.73;;
19727;SDS011;10015;52.530;13.390;2023-05-07T01:31:09;11.93;;;8.23;;
19727;SDS011;10015;52.530;13.390;2023-05-07T01:33:35;14.17;;;9.07;;
19727;SDS011;10015;52.530;13.390;2023-05-07T01:36:04;13.13;;;8.47;;
19727;SDS011;10015;52.530;13.390;2023-05-07T01:38:32;12.67;;;7.93;;
19727;SDS011;10015;52.530;13.390;2023-05-07T01:40:59;14.63;;;8.17;;
19727;SDS011;10015;52.530;13.390;2023-05-07T01:43:25;12.43;;;8.60;;
19727;SDS011;10015;52.530;13.390;2023-05-07T01:45:51;13.33;;;8.20;;
19727;SDS011;10015;52.530;13.390;2023-05-07T01:48:18;15.30;;;9.20;;
19727;SDS011;10015;52.530;13.390;2023-05-07T01:50:44;13.77;;;8.13;;
19727;SDS011;10015;52.530;13.390;2023-05-07T01:53:10;12.80;;;8.07;;
19727;SDS011;10015;52.530;13.390;2023-05-07T01:55:36;13.93;;;8.50;;
19727;SDS011;10015;52.530;13.390;2023-05-07T01:58:03;13.70;;;8.13;;
19727;SDS011;10015;52.530;13.390;2023-05-07T02:00:29;13.10;;;8.60;;
19727;SDS011;10015;52.530;13.390;2023-05-07T02:02:56;13.33;;;8.10;;
19727;SDS011;10015;52.530;13.390;2023-05-07T02:05:30;13.37;;;9.23;;
19727;SDS011;10015;52.530;13.390;2023-05-07T02:08:07;13.97;;;8.57;;
19727;SDS011;10015;52.530;13.390;2023-05-07T02:10:34;13.30;;;8.23;;
19727;SDS011;10015;52.530;13.390;2023-05-07T02:13:01;15.97;;;9.20;;
19727;SDS011;10015;52.530;13.390;2023-05-07T02:15:27;14.43;;;8.87;;
19727;SDS011;10015;52.530;13.390;2023-05-07T02:18:03;15.17;;;8.43;;
19727;SDS011;10015;52.530;13.390;2023-05-07T02:20:32;12.70;;;8.43;;
19727;SDS011;10015;52.530;13.390;2023-05-07T02:22:58;15.47;;;9.13;;
19727;SDS011;10015;52.530;13.390;2023-05-07T02:25:26;14.67;;;8.80;;
19727;SDS011;10015;52.530;13.390;2023-05-07T02:27:52;14.13;;;8.80;;
19727;SDS011;10015;52.530;13.390;2023-05-07T02:30:20;12.70;;;8.33;;
19727;SDS011;10015;52.530;13.390;2023-05-07T02:32:49;13.40;;;8.50;;
19727;SDS011;10015;52.530;13.390;2023-05-07T02:35:15;14.40;;;8.40;;
19727;SDS011;10015;52.530;13.390;2023-05-07T02:37:41;12.60;;;8.60;;
19727;SDS011;10015;52.530;13.390;2023-05-07T02:40:08;13.63;;;8.30;;
19727;SDS011;10015;52.530;13.390;2023-05-07T02:42:34;17.97;;;9.50;;
19727;SDS011;10015;52.530;13.390;2023-05-07T02:45:00;14.57;;;8.93;;
19727;SDS011;10015;52.530;13.390;2023-05-07T02:47:27;13.10;;;8.80;;
19727;SDS011;10015;52.530;13.390;2023-05-07T02:49:54;16.77;;;8.83;;
19727;SDS011;10015;52.530;13.390;2023-05-07T02:52:21;12.27;;;8.27;;
19727;SDS011;10015;52.530;13.390;2023-05-07T02:54:47;13.40;;;9.13;;
19727;SDS011;10015;52.530;13.390;2023-05-07T02:57:13;13.27;;;8.57;;
19727;SDS011;10015;52.530;13.390;2023-05-07T02:59:39;12.33;;;8.03;;
19727;SDS011;10015;52.530;13.390;2023-05-07T03:02:05;15.93;;;8.80;;
19727;SDS011;10015;52.530;13.390;2023-05-07T03:04:31;11.57;;;8.20;;
19727;SDS011;10015;52.530;13.390;2023-05-07T03:06:57;12.53;;;8.33;;
19727;SDS011;10015;52.530;13.390;2023-05-07T03:09:23;11.20;;;7.93;;
19727;SDS011;10015;52.530;13.390;2023-05-07T03:11:49;11.33;;;8.27;;
19727;SDS011;10015;52.530;13.390;2023-05-07T03:14:15;12.60;;;8.23;;
19727;SDS011;10015;52.530;13.390;2023-05-07T03:16:41;12.77;;;7.53;;
19727;SDS011;10015;52.530;13.390;2023-05-07T03:19:07;11.87;;;7.83;;
19727;SDS011;10015;52.530;13.390;2023-05-07T03:21:33;11.97;;;7.80;;
19727;SDS011;10015;52.530;13.390;2023-05-07T03:23:59;13.93;;;7.93;;
19727;SDS011;10015;52.530;13.390;2023-05-07T03:26:25;11.93;;;7.80;;
19727;SDS011;10015;52.530;13.390;2023-05-07T03:28:51;11.47;;;7.80;;
19727;SDS011;10015;52.530;13.390;2023-05-07T03:31:17;13.53;;;7.73;;
19727;SDS011;10015;52.530;13.390;2023-05-07T03:33:50;13.90;;;8.23;;
19727;SDS011;10015;52.530;13.390;2023-05-07T03:36:17;10.83;;;7.57;;
19727;SDS011;10015;52.530;13.390;2023-05-07T03:38:43;13.27;;;7.60;;
19727;SDS011;10015;52.530;13.390;2023-05-07T03:41:09;13.57;;;8.17;;
19727;SDS011;10015;52.530;13.390;2023-05-07T03:43:35;12.00;;;7.63;;
19727;SDS011;10015;52.530;13.390;2023-05-07T03:46:06;10.50;;;7.57;;
19727;SDS011;10015;52.530;13.390;2023-05-07T03:48:32;13.53;;;7.97;;
19727;SDS011;10015;52.530;13.390;2023-05-07T03:50:58;15.10;;;8.57;;
19727;SDS011;10015;52.530;13.390;2023-05-07T03:53:28;13.30;;;7.90;;
19727;SDS011;10015;52.530;13.390;2023-05-07T03:55:54;14.43;;;8.13;;
19727;SDS011;10015;52.530;13.390;2023-05-07T03:58:20;11.60;;;8.10;;
19727;SDS011;10015;52.530;13.390;2023-05-07T04:00:46;12.43;;;7.93;;
19727;SDS011;10015;52.530;13.390;2023-05-07T04:03:22;11.90;;;8.00;;
19727;SDS011;10015;52.530;13.390;2023-05-07T04:05:48;12.93;;;8.20;;
19727;SDS011;10015;52.530;13.390;2023-05-07T04:08:14;12.60;;;7.47;;
19727;SDS011;10015;52.530;13.390;2023-05-07T04:10:45;12.10;;;7.77;;
19727;SDS011;10015;52.530;13.390;2023-05-07T04:13:12;13.30;;;7.67;;
19727;SDS011;10015;52.530;13.390;2023-05-07T04:15:38;12.37;;;7.70;;
19727;SDS011;10015;52.530;13.390;2023-05-07T04:18:07;11.97;;;7.60;;
19727;SDS011;10015;52.530;13.390;2023-05-07T04:20:34;11.67;;;7.70;;
19727;SDS011;10015;52.530;13.390;2023-05-07T04:23:03;12.30;;;6.70;;
19727;SDS011;10015;52.530;13.390;2023-05-07T04:25:29;10.80;;;7.50;;
19727;SDS011;10015;52.530;13.390;2023-05-07T04:28:10;13.37;;;7.50;;
19727;SDS011;10015;52.530;13.390;2023-05-07T04:30:38;11.33;;;7.17;;
19727;SDS011;10015;52.530;13.390;2023-05-07T04:33:06;11.73;;;7.40;;
19727;SDS011;10015;52.530;13.390;2023-05-07T04:35:33;12.10;;;7.53;;
19727;SDS011;10015;52.530;13.390;2023-05-07T04:37:59;11.87;;;7.00;;
19727;SDS011;10015;52.530;13.390;2023-05-07T04:40:25;12.13;;;6.87;;
19727;SDS011;10015;52.530;13.390;2023-05-07T04:42:51;12.53;;;7.17;;
19727;SDS011;10015;52.530;13.390;2023-05-07T04:45:18;10.73;;;6.97;;
19727;SDS011;10015;52.530;13.390;2023-05-07T04:47:45;10.33;;;7.00;;
19727;SDS011;10015;52.530;13.390;2023-05-07T04:50:12;9.27;;;6.40;;
19727;SDS011;10015;52.530;13.390;2023-05-07T04:52:39;9.90;;;6.50;;
19727;SDS011;10015;52.530;13.390;2023-05-07T04:55:05;11.37;;;7.20;;
19727;SDS011;10015;52.530;13.390;2023-05-07T04:57:36;10.90;;;6.43;;
19727;SDS011;10015;52.530;13.390;2023-05-07T05:00:03;9.70;;;6.17;;
19727;SDS011;10015;52.530;13.390;2023-05-07T05:02:31;8.97;;;6.53;;
19727;SDS011;10015;52.530;13.390;2023-05-07T05:04:58;10.93;;;6.27;;
19727;SDS011;10015;52.530;13.390;2023-05-07T05:07:24;8.83;;;6.27;;
19727;SDS011;10015;52.530;13.390;2023-05-07T05:09:50;8.47;;;5.97;;
19727;SDS011;10015;52.530;13.390;2023-05-07T05:12:16;9.50;;;5.83;;
19727;SDS011;10015;52.530;13.390;2023-05-07T05:14:43;7.73;;;5.77;;
19727;SDS011;10015;52.530;13.390;2023-05-07T05:17:09;8.77;;;5.80;;
19727;SDS011;10015;52.530;13.390;2023-05-07T05:19:36;8.53;;;5.97;;
19727;SDS011;10015;52.530;13.390;2023-05-07T05:22:02;9.40;;;6.17;;
19727;SDS011;10015;52.530;13.390;2023-05-07T05:24:30;9.60;;;6.33;;
19727;SDS011;10015;52.530;13.390;2023-05-07T05:26:56;9.63;;;6.33;;
19727;SDS011;10015;52.530;13.390;2023-05-07T05:29:23;7.53;;;5.50;;
19727;SDS011;10015;52.530;13.390;2023-05-07T05:31:49;9.63;;;5.93;;
19727;SDS011;10015;52.530;13.390;2023-05-07T05:34:17;10.07;;;6.43;;
19727;SDS011;10015;52.530;13.390;2023-05-07T05:36:45;8.13;;;6.13;;
19727;SDS011;10015;52.530;13.390;2023-05-07T05:39:12;10.47;;;6.17;;
19727;SDS011;10015;52.530;13.390;2023-05-07T05:41:39;12.23;;;6.87;;
19727;SDS011;10015;52.530;13.390;2023-05-07T05:44:05;9.43;;;6.50;;
19727;SDS011;10015;52.530;13.390;2023-05-07T05:46:32;10.20;;;5.97;;
19727;SDS011;10015;52.530;13.390;2023-05-07T05:48:58;9.13;;;6.00;;
19727;SDS011;10015;52.530;13.390;2023-05-07T05:51:24;8.97;;;6.40;;
19727;SDS011;10015;52.530;13.390;2023-05-07T05:53:50;10.60;;;6.33;;
19727;SDS011;10015;52.530;13.390;2023-05-07T05:56:19;10.53;;;6.57;;
19727;SDS011;10015;52.530;13.390;2023-05-07T05:58:46;8.47;;;5.93;;
19727;SDS011;10015;52.530;13.390;2023-05-07T06:01:13;9.90;;;6.47;;
19727;SDS011;10015;52.530;13.390;2023-05-07T06:03:39;13.50;;;7.23;;
19727;SDS011;10015;52.530;13.390;2023-05-07T06:06:11;10.43;;;5.80;;
19727;SDS011;10015;52.530;13.390;2023-05-07T06:08:37;9.17;;;6.40;;
19727;SDS011;10015;52.530;13.390;2023-05-07T06:11:03;9.87;;;6.13;;
19727;SDS011;10015;52.530;13.390;2023-05-07T06:13:32;10.60;;;6.63;;
19727;SDS011;10015;52.530;13.390;2023-05-07T06:15:58;12.37;;;6.87;;
19727;SDS011;10015;52.530;13.390;2023-05-07T06:18:24;11.17;;;6.50;;
19727;SDS011;10015;52.530;13.390;2023-05-07T06:20:51;10.00;;;5.80;;
19727;SDS011;10015;52.530;13.390;2023-05-07T06:23:23;10.33;;;6.87;;
19727;SDS011;10015;52.530;13.390;2023-05-07T06:25:49;10.60;;;6.40;;
19727;SDS011;10015;52.530;13.390;2023-05-07T06:28:17;8.80;;;5.80;;
19727;SDS011;10015;52.530;13.390;2023-05-07T06:30:43;10.50;;;6.47;;
19727;SDS011;10015;52.530;13.390;2023-05-07T06:33:09;10.93;;;6.43;;
19727;SDS011;10015;52.530;13.390;2023-05-07T06:35:35;9.30;;;5.80;;
19727;SDS011;10015;52.530;13.390;2023-05-07T06:38:01;11.73;;;5.90;;
19727;SDS011;10015;52.530;13.390;2023-05-07T06:40:28;10.30;;;6.13;;
19727;SDS011;10015;52.530;13.390;2023-05-07T06:42:55;7.87;;;6.17;;
19727;SDS011;10015;52.530;13.390;2023-05-07T06:45:34;10.33;;;6.00;;
19727;SDS011;10015;52.530;13.390;2023-05-07T06:48:00;9.00;;;5.97;;
19727;SDS011;10015;52.530;13.390;2023-05-07T06:50:29;9.37;;;5.60;;
19727;SDS011;10015;52.530;13.390;2023-05-07T06:52:56;7.67;;;5.50;;
19727;SDS011;10015;52.530;13.390;2023-05-07T06:55:22;9.63;;;6.17;;
19727;SDS011;10015;52.530;13.390;2023-05-07T06:57:49;10.43;;;5.90;;
19727;SDS011;10015;52.530;13.390;2023-05-07T07:00:15;9.17;;;5.50;;
19727;SDS011;10015;52.530;13.390;2023-05-07T07:02:52;7.10;;;4.70;;
19727;SDS011;10015;52.530;13.390;2023-05-07T07:05:22;7.37;;;5.27;;
19727;SDS011;10015;52.530;13.390;2023-05-07T07:07:48;9.00;;;5.20;;
19727;SDS011;10015;52.530;13.390;2023-05-07T07:10:19;6.97;;;5.13;;
19727;SDS011;10015;52.530;13.390;2023-05-07T07:12:45;7.27;;;4.83;;
19727;SDS011;10015;52.530;13.390;2023-05-07T07:15:11;7.97;;;5.23;;
19727;SDS011;10015;52.530;13.390;2023-05-07T07:17:37;7.37;;;4.77;;
19727;SDS011;10015;52.530;13.390;2023-05-07T07:20:03;7.17;;;5.17;;
19727;SDS011;10015;52.530;13.390;2023-05-07T07:22:30;7.67;;;4.67;;
19727;SDS011;10015;52.530;13.390;2023-05-07T07:24:56;6.63;;;4.30;;
19727;SDS011;10015;52.530;13.390;2023-05-07T07:27:23;6.87;;;4.33;;
19727;SDS011;10015;52.530;13.390;2023-05-07T07:29:49;6.20;;;3.93;;
19727;SDS011;10015;52.530;13.390;2023-05-07T07:32:15;4.30;;;3.50;;
19727;SDS011;10015;52.530;13.390;2023-05-07T07:34:41;5.27;;;3.70;;
19727;SDS011;10015;52.530;13.390;2023-05-07T07:37:08;6.83;;;4.10;;
19727;SDS011;10015;52.530;13.390;2023-05-07T07:39:35;5.00;;;3.43;;
19727;SDS011;10015;52.530;13.390;2023-05-07T07:42:03;4.23;;;3.43;;
19727;SDS011;10015;52.530;13.390;2023-05-07T07:44:30;5.40;;;3.80;;
19727;SDS011;10015;52.530;13.390;2023-05-07T07:47:00;5.90;;;3.93;;
19727;SDS011;10015;52.530;13.390;2023-05-07T07:49:27;5.50;;;3.60;;
19727;SDS011;10015;52.530;13.390;2023-05-07T07:51:54;6.73;;;3.87;;
19727;SDS011;10015;52.530;13.390;2023-05-07T07:54:24;6.30;;;3.83;;
19727;SDS011;10015;52.530;13.390;2023-05-07T07:56:50;5.17;;;3.43;;
19727;SDS011;10015;52.530;13.390;2023-05-07T07:59:16;3.70;;;3.13;;
19727;SDS011;10015;52.530;13.390;2023-05-07T08:01:44;7.53;;;3.50;;
19727;SDS011;10015;52.530;13.390;2023-05-07T08:04:10;4.80;;;3.30;;
19727;SDS011;10015;52.530;13.390;2023-05-07T08:06:39;5.87;;;2.93;;
19727;SDS011;10015;52.530;13.390;2023-05-07T08:09:07;4.23;;;2.93;;
19727;SDS011;10015;52.530;13.390;2023-05-07T08:11:33;4.57;;;3.43;;
19727;SDS011;10015;52.530;13.390;2023-05-07T08:14:00;6.80;;;3.20;;
19727;SDS011;10015;52.530;13.390;2023-05-07T08:16:26;4.43;;;2.70;;
19727;SDS011;10015;52.530;13.390;2023-05-07T08:18:53;4.10;;;2.53;;
19727;SDS011;10015;52.530;13.390;2023-05-07T08:21:19;4.30;;;2.50;;
19727;SDS011;10015;52.530;13.390;2023-05-07T08:23:45;3.73;;;2.60;;
19727;SDS011;10015;52.530;13.390;2023-05-07T08:26:11;4.17;;;2.60;;
19727;SDS011;10015;52.530;13.390;2023-05-07T08:28:37;4.37;;;2.97;;
19727;SDS011;10015;52.530;13.390;2023-05-07T08:31:03;4.90;;;2.83;;
19727;SDS011;10015;52.530;13.390;2023-05-07T08:33:33;4.20;;;2.60;;
19727;SDS011;10015;52.530;13.390;2023-05-07T08:35:59;2.73;;;2.40;;
19727;SDS011;10015;52.530;13.390;2023-05-07T08:38:25;4.90;;;3.20;;
19727;SDS011;10015;52.530;13.390;2023-05-07T08:40:51;4.63;;;2.77;;
19727;SDS011;10015;52.530;13.390;2023-05-07T08:43:19;3.67;;;2.77;;
19727;SDS011;10015;52.530;13.390;2023-05-07T08:45:46;4.50;;;3.10;;
19727;SDS011;10015;52.530;13.390;2023-05-07T08:48:18;4.37;;;2.60;;
19727;SDS011;10015;52.530;13.390;2023-05-07T08:50:54;3.57;;;2.67;;
19727;SDS011;10015;52.530;13.390;2023-05-07T08:53:20;6.80;;;4.00;;
19727;SDS011;10015;52.530;13.390;2023-05-07T08:55:47;3.93;;;2.83;;
19727;SDS011;10015;52.530;13.390;2023-05-07T08:58:14;3.80;;;2.57;;
19727;SDS011;10015;52.530;13.390;2023-05-07T09:00:40;3.70;;;2.67;;
19727;SDS011;10015;52.530;13.390;2023-05-07T09:03:07;3.33;;;2.67;;
19727;SDS011;10015;52.530;13.390;2023-05-07T09:05:34;4.47;;;2.90;;
19727;SDS011;10015;52.530;13.390;2023-05-07T09:08:02;5.47;;;2.60;;
19727;SDS011;10015;52.530;13.390;2023-05-07T09:10:29;4.27;;;2.50;;
19727;SDS011;10015;52.530;13.390;2023-05-07T09:12:55;4.73;;;2.57;;
19727;SDS011;10015;52.530;13.390;2023-05-07T09:15:21;3.73;;;2.37;;
19727;SDS011;10015;52.530;13.390;2023-05-07T09:17:47;4.57;;;2.60;;
19727;SDS011;10015;52.530;13.390;2023-05-07T09:20:13;4.00;;;2.63;;
19727;SDS011;10015;52.530;13.390;2023-05-07T09:22:39;5.10;;;3.00;;
19727;SDS011;10015;52.530;13.390;2023-05-07T09:25:09;5.47;;;2.87;;
19727;SDS011;10015;52.530;13.390;2023-05-07T09:27:37;5.77;;;2.60;;
19727;SDS011;10015;52.530;13.390;2023-05-07T09:30:04;3.87;;;2.60;;
19727;SDS011;10015;52.530;13.390;2023-05-07T09:32:34;3.93;;;2.70;;
19727;SDS011;10015;52.530;13.390;2023-05-07T09:35:05;5.80;;;2.70;;
19727;SDS011;10015;52.530;13.390;2023-05-07T09:37:31;2.97;;;2.47;;
19727;SDS011;10015;52.530;13.390;2023-05-07T09:39:58;4.10;;;2.97;;
19727;SDS011;10015;52.530;13.390;2023-05-07T09:42:26;6.73;;;2.80;;
19727;SDS011;10015;52.530;13.390;2023-05-07T09:44:55;4.27;;;2.90;;
19727;SDS011;10015;52.530;13.390;2023-05-07T09:47:25;3.90;;;2.80;;
19727;SDS011;10015;52.530;13.390;2023-05-07T09:49:57;3.23;;;2.53;;
19727;SDS011;10015;52.530;13.390;2023-05-07T09:52:28;2.90;;;2.40;;
19727;SDS011;10015;52.530;13.390;2023-05-07T09:55:00;5.10;;;2.67;;
19727;SDS011;10015;52.530;13.390;2023-05-07T09:57:29;4.30;;;2.60;;
19727;SDS011;10015;52.530;13.390;2023-05-07T10:00:02;4.83;;;2.30;;
19727;SDS011;10015;52.530;13.390;2023-05-07T10:02:45;2.70;;;2.20;;
19727;SDS011;10015;52.530;13.390;2023-05-07T10:05:22;4.97;;;2.07;;
19727;SDS011;10015;52.530;13.390;2023-05-07T10:07:49;2.40;;;1.77;;
19727;SDS011;10015;52.530;13.390;2023-05-07T10:10:16;3.30;;;2.20;;
19727;SDS011;10015;52.530;13.390;2023-05-07T10:12:44;3.40;;;2.30;;
19727;SDS011;10015;52.530;13.390;2023-05-07T10:15:20;3.50;;;2.00;;
19727;SDS011;10015;52.530;13.390;2023-05-07T10:17:50;3.83;;;1.97;;
19727;SDS011;10015;52.530;13.390;2023-05-07T10:20:18;3.80;;;1.90;;
19727;SDS011;10015;52.530;13.390;2023-05-07T10:22:47;4.20;;;1.80;;
19727;SDS011;10015;52.530;13.390;2023-05-07T10:25:20;2.60;;;1.80;;
19727;SDS011;10015;52.530;13.390;2023-05-07T10:27:51;2.93;;;1.80;;
19727;SDS011;10015;52.530;13.390;2023-05-07T10:30:26;1.93;;;1.73;;
19727;SDS011;10015;52.530;13.390;2023-05-07T10:33:06;2.20;;;1.70;;
19727;SDS011;10015;52.530;13.390;2023-05-07T10:35:41;2.23;;;2.00;;
19727;SDS011;10015;52.530;13.390;2023-05-07T10:38:10;1.73;;;1.63;;
19727;SDS011;10015;52.530;13.390;2023-05-07T10:40:39;2.10;;;1.90;;
19727;SDS011;10015;52.530;13.390;2023-05-07T10:43:06;2.60;;;1.80;;
19727;SDS011;10015;52.530;13.390;2023-05-07T10:45:39;3.40;;;1.73;;
19727;SDS011;10015;52.530;13.390;2023-05-07T10:50:36;3.00;;;2.00;;
19727;SDS011;10015;52.530;13.390;2023-05-07T10:55:46;3.07;;;1.70;;
19727;SDS011;10015;52.530;13.390;2023-05-07T11:00:56;2.83;;;1.80;;
19727;SDS011;10015;52.530;13.390;2023-05-07T11:03:28;2.20;;;1.60;;
19727;SDS011;10015;52.530;13.390;2023-05-07T11:06:08;3.00;;;2.03;;
19727;SDS011;10015;52.530;13.390;2023-05-07T11:08:56;3.07;;;2.00;;
19727;SDS011;10015;52.530;13.390;2023-05-07T11:11:48;2.93;;;1.60;;
19727;SDS011;10015;52.530;13.390;2023-05-07T11:14:44;3.13;;;1.90;;
19727;SDS011;10015;52.530;13.390;2023-05-07T11:17:15;3.00;;;2.00;;
19727;SDS011;10015;52.530;13.390;2023-05-07T11:19:48;2.33;;;1.73;;
19727;SDS011;10015;52.530;13.390;2023-05-07T11:25:06;3.50;;;1.53;;
19727;SDS011;10015;52.530;13.390;2023-05-07T11:27:34;2.77;;;2.00;;
19727;SDS011;10015;52.530;13.390;2023-05-07T11:30:00;2.07;;;1.87;;
19727;SDS011;10015;52.530;13.390;2023-05-07T11:32:30;2.07;;;1.70;;
19727;SDS011;10015;52.530;13.390;2023-05-07T11:34:58;3.87;;;1.87;;
19727;SDS011;10015;52.530;13.390;2023-05-07T11:37:26;2.73;;;1.70;;
19727;SDS011;10015;52.530;13.390;2023-05-07T11:40:02;2.17;;;1.70;;
19727;SDS011;10015;52.530;13.390;2023-05-07T11:42:31;2.30;;;1.70;;
19727;SDS011;10015;52.530;13.390;2023-05-07T11:44:59;3.23;;;1.70;;
19727;SDS011;10015;52.530;13.390;2023-05-07T11:47:25;3.13;;;2.00;;
19727;SDS011;10015;52.530;13.390;2023-05-07T11:49:52;1.80;;;1.60;;
19727;SDS011;10015;52.530;13.390;2023-05-07T11:52:20;2.47;;;1.77;;
19727;SDS011;10015;52.530;13.390;2023-05-07T11:54:51;2.47;;;1.97;;
19727;SDS011;10015;52.530;13.390;2023-05-07T11:57:18;2.60;;;1.80;;
19727;SDS011;10015;52.530;13.390;2023-05-07T11:59:45;2.70;;;1.67;;
19727;SDS011;10015;52.530;13.390;2023-05-07T12:02:15;4.37;;;1.83;;
19727;SDS011;10015;52.530;13.390;2023-05-07T12:04:42;3.10;;;1.60;;
19727;SDS011;10015;52.530;13.390;2023-05-07T12:07:15;4.60;;;2.00;;
19727;SDS011;10015;52.530;13.390;2023-05-07T12:09:41;2.50;;;1.80;;
19727;SDS011;10015;52.530;13.390;2023-05-07T12:12:07;5.60;;;1.67;;
19727;SDS011;10015;52.530;13.390;2023-05-07T12:14:37;3.67;;;1.63;;
19727;SDS011;10015;52.530;13.390;2023-05-07T12:17:08;2.60;;;1.40;;
19727;SDS011;10015;52.530;13.390;2023-05-07T12:19:35;5.10;;;2.07;;
19727;SDS011;10015;52.530;13.390;2023-05-07T12:22:02;4.83;;;2.20;;
19727;SDS011;10015;52.530;13.390;2023-05-07T12:24:29;2.00;;;1.70;;
19727;SDS011;10015;52.530;13.390;2023-05-07T12:27:06;2.07;;;1.50;;
19727;SDS011;10015;52.530;13.390;2023-05-07T12:29:32;1.60;;;1.37;;
19727;SDS011;10015;52.530;13.390;2023-05-07T12:31:58;3.00;;;1.60;;
19727;SDS011;10015;52.530;13.390;2023-05-07T12:34:24;2.30;;;1.50;;
19727;SDS011;10015;52.530;13.390;2023-05-07T12:36:50;1.93;;;1.20;;
19727;SDS011;10015;52.530;13.390;2023-05-07T12:39:16;1.70;;;1.50;;
19727;SDS011;10015;52.530;13.390;2023-05-07T12:41:55;2.03;;;1.50;;
19727;SDS011;10015;52.530;13.390;2023-05-07T12:44:24;2.93;;;1.70;;
19727;SDS011;10015;52.530;13.390;2023-05-07T12:47:03;2.43;;;1.30;;
19727;SDS011;10015;52.530;13.390;2023-05-07T12:49:29;2.70;;;1.30;;
19727;SDS011;10015;52.530;13.390;2023-05-07T12:51:55;2.83;;;1.63;;
19727;SDS011;10015;52.530;13.390;2023-05-07T12:54:28;3.33;;;1.50;;
19727;SDS011;10015;52.530;13.390;2023-05-07T12:57:01;3.10;;;1.40;;
19727;SDS011;10015;52.530;13.390;2023-05-07T12:59:35;2.43;;;1.57;;
19727;SDS011;10015;52.530;13.390;2023-05-07T13:02:03;1.80;;;1.43;;
19727;SDS011;10015;52.530;13.390;2023-05-07T13:04:29;1.63;;;1.40;;
19727;SDS011;10015;52.530;13.390;2023-05-07T13:06:55;2.13;;;1.37;;
19727;SDS011;10015;52.530;13.390;2023-05-07T13:09:21;3.00;;;1.40;;
19727;SDS011;10015;52.530;13.390;2023-05-07T13:11:47;2.10;;;1.20;;
19727;SDS011;10015;52.530;13.390;2023-05-07T13:14:13;1.97;;;1.30;;
19727;SDS011;10015;52.530;13.390;2023-05-07T13:16:39;2.30;;;1.40;;
19727;SDS011;10015;52.530;13.390;2023-05-07T13:19:08;1.53;;;1.30;;
19727;SDS011;10015;52.530;13.390;2023-05-07T13:21:34;2.27;;;1.30;;
19727;SDS011;10015;52.530;13.390;2023-05-07T13:23:59;2.50;;;1.27;;
19727;SDS011;10015;52.530;13.390;2023-05-07T13:26:25;3.07;;;1.87;;
19727;SDS011;10015;52.530;13.390;2023-05-07T13:28:52;3.27;;;1.50;;
19727;SDS011;10015;52.530;13.390;2023-05-07T13:31:19;2.10;;;1.47;;
19727;SDS011;10015;52.530;13.390;2023-05-07T13:33:46;3.53;;;1.60;;
19727;SDS011;10015;52.530;13.390;2023-05-07T13:36:12;2.10;;;1.60;;
19727;SDS011;10015;52.530;13.390;2023-05-07T13:38:41;4.30;;;1.60;;
19727;SDS011;10015;52.530;13.390;2023-05-07T13:41:07;2.03;;;1.40;;
19727;SDS011;10015;52.530;13.390;2023-05-07T13:43:33;1.80;;;1.50;;
19727;SDS011;10015;52.530;13.390;2023-05-07T13:46:02;3.07;;;1.80;;
19727;SDS011;10015;52.530;13.390;2023-05-07T13:48:28;5.43;;;1.73;;
19727;SDS011;10015;52.530;13.390;2023-05-07T13:50:54;2.00;;;1.57;;
19727;SDS011;10015;52.530;13.390;2023-05-07T13:53:20;2.83;;;1.50;;
19727;SDS011;10015;52.530;13.390;2023-05-07T13:55:45;2.17;;;1.53;;
19727;SDS011;10015;52.530;13.390;2023-05-07T13:58:12;2.97;;;1.40;;
19727;SDS011;10015;52.530;13.390;2023-05-07T14:00:38;1.53;;;1.20;;
19727;SDS011;10015;52.530;13.390;2023-05-07T14:03:05;2.90;;;1.50;;
19727;SDS011;10015;52.530;13.390;2023-05-07T14:05:31;2.30;;;1.80;;
19727;SDS011;10015;52.530;13.390;2023-05-07T14:07:57;3.63;;;1.87;;
19727;SDS011;10015;52.530;13.390;2023-05-07T14:10:23;4.70;;;1.63;;
19727;SDS011;10015;52.530;13.390;2023-05-07T14:12:50;1.40;;;1.30;;
19727;SDS011;10015;52.530;13.390;2023-05-07T14:15:16;3.00;;;1.50;;
19727;SDS011;10015;52.530;13.390;2023-05-07T14:17:42;3.10;;;1.70;;
19727;SDS011;10015;52.530;13.390;2023-05-07T14:20:08;2.70;;;1.50;;
19727;SDS011;10015;52.530;13.390;2023-05-07T14:22:38;3.10;;;1.40;;
19727;SDS011;10015;52.530;13.390;2023-05-07T14:25:04;2.27;;;1.30;;
19727;SDS011;10015;52.530;13.390;2023-05-07T14:27:30;3.37;;;1.70;;
19727;SDS011;10015;52.530;13.390;2023-05-07T14:29:56;1.97;;;1.40;;
19727;SDS011;10015;52.530;13.390;2023-05-07T14:32:22;2.40;;;1.43;;
19727;SDS011;10015;52.530;13.390;2023-05-07T14:34:48;2.53;;;1.70;;
19727;SDS011;10015;52.530;13.390;2023-05-07T14:37:14;1.73;;;1.33;;
19727;SDS011;10015;52.530;13.390;2023-05-07T14:39:40;2.07;;;1.20;;
19727;SDS011;10015;52.530;13.390;2023-05-07T14:42:06;2.73;;;1.63;;